This is the latest recevied weather packets stored in our database for station/object KB9MLJ. If no packets are shown the sender has not sent any weather packets the latest 1 day(s).
| Time | Temp. | Humidity | Pressure | Rain* | Wind** | Luminosity | Snow |
|---|---|---|---|---|---|---|---|
| 1778093418 | 12.78° C | 44% | 1014.4 hPa | 0 mm | - | 203 W/m² | - |
| 1778090387 | 12.78° C | 47% | 1014.4 hPa | 0 mm | - | 189 W/m² | - |
| 1778090084 | 12.78° C | 46% | 1014.4 hPa | 0 mm | - | 227 W/m² | - |
| 1778087963 | 13.33° C | 45% | 1014.7 hPa | 0 mm | - | 802 W/m² | - |
| 1778086753 | 12.22° C | 47% | 1014.7 hPa | 0 mm | - | 744 W/m² | - |
| 1778086451 | 12.22° C | 48% | 1014.4 hPa | 0 mm | - | 594 W/m² | - |
| 1778084326 | 12.22° C | 47% | 1014.4 hPa | 0 mm | - | 629 W/m² | - |
| 1778084024 | 12.22° C | 47% | 1014.4 hPa | 0 mm | - | 573 W/m² | - |
| 1778083418 | 12.78° C | 47% | 1014.4 hPa | 0 mm | - | 537 W/m² | - |
| 1778081079 | 11.11° C | 53% | 1014.4 hPa | 0 mm | - | 239 W/m² | - |
| 1778079565 | 10° C | 56% | 1014.4 hPa | 0 mm | - | 298 W/m² | - |
| 1778079261 | 10° C | 58% | 1014.4 hPa | 0 mm | - | 257 W/m² | - |
| 1778078959 | 10° C | 60% | 1014.4 hPa | 0 mm | - | 230 W/m² | - |
| 1778078655 | 10° C | 58% | 1014.4 hPa | 0 mm | - | 225 W/m² | - |
| 1778076842 | 9.44° C | 62% | 1014.7 hPa | 0 mm | - | 210 W/m² | - |
| 1778076236 | 9.44° C | 64% | 1014.7 hPa | 0 mm | - | 114 W/m² | - |
| 1778075023 | 8.33° C | 68% | 1014 hPa | 0 mm | - | 127 W/m² | - |
| 1778074417 | 8.33° C | 68% | 1014 hPa | 0 mm | - | 120 W/m² | - |
| 1778073205 | 7.78° C | 72% | 1013.7 hPa | 0 mm | - | 106 W/m² | - |
| 1778072902 | 7.78° C | 74% | 1013.7 hPa | 0 mm | - | 100 W/m² | - |
| 1778072598 | 7.78° C | 74% | 1013.7 hPa | 0 mm | - | 100 W/m² | - |
| 1778071994 | 7.78° C | 74% | 1013.7 hPa | 0 mm | - | 108 W/m² | - |
| 1778071693 | 7.78° C | 74% | 1013.3 hPa | 0 mm | - | 115 W/m² | - |
| 1778071389 | 7.22° C | 75% | 1013.3 hPa | 0 mm | - | 90 W/m² | - |
| 1778071087 | 7.22° C | 75% | 1013 hPa | 0 mm | - | 87 W/m² | - |
* Rain latest hour (hover to see other rain measurements)
** Current wind speed in m/s (hover to see current wind gust speed)